Time;durP1;ratioP1;P1;durP2;ratioP2;P2;SDS_P1;SDS_P2;PMS_P1;PMS_P2;Temp;Humidity;BMP_temperature;BMP_pressure;BME280_temperature;BME280_humidity;BME280_pressure;Samples;Min_cycle;Max_cycle;Signal;HPM_P1;HPM_P2
2022/08/16 00:00:57;;;;;;;14.88;13.65;;;21.30;99.90;;;;;;5085768;28;20483;-82
2022/08/16 00:03:23;;;;;;;16.63;14.40;;;21.30;99.90;;;;;;5103717;27;20039;-82
2022/08/16 00:05:49;;;;;;;15.52;14.02;;;21.20;99.90;;;;;;5114452;27;20158;-82
2022/08/16 00:08:16;;;;;;;15.18;13.77;;;21.20;99.90;;;;;;5100579;27;20126;-82
2022/08/16 00:10:42;;;;;;;16.02;14.63;;;21.20;99.90;;;;;;5095817;27;20406;-82
2022/08/16 00:13:09;;;;;;;15.05;13.55;;;21.10;99.90;;;;;;5072688;27;20103;-82
2022/08/16 00:15:37;;;;;;;15.98;14.55;;;21.10;99.90;;;;;;5092503;27;20066;-82
2022/08/16 00:18:03;;;;;;;12.88;11.77;;;21.10;99.90;;;;;;5101608;27;20138;-83
2022/08/16 00:20:30;;;;;;;15.05;13.55;;;21.10;99.90;;;;;;5081911;28;20699;-83
2022/08/16 00:22:56;;;;;;;14.98;13.77;;;21.10;99.90;;;;;;5098813;28;20045;-83
2022/08/16 00:25:24;;;;;;;17.92;16.50;;;21.10;99.90;;;;;;5103254;27;20611;-83
2022/08/16 00:27:53;;;;;;;15.52;14.23;;;21.10;99.90;;;;;;5116736;27;20039;-83
2022/08/16 00:30:21;;;;;;;17.55;16.00;;;21.10;99.90;;;;;;5078671;27;20626;-83
2022/08/16 00:32:50;;;;;;;15.90;14.60;;;21.20;99.90;;;;;;5119189;27;20047;-84
2022/08/16 00:35:19;;;;;;;17.17;15.48;;;21.20;99.90;;;;;;5114541;27;20049;-83
2022/08/16 00:37:46;;;;;;;20.05;18.25;;;21.20;99.90;;;;;;5099262;27;20050;-83
2022/08/16 00:40:20;;;;;;;18.00;16.38;;;21.20;99.90;;;;;;5086177;27;20107;-84
2022/08/16 00:42:46;;;;;;;16.65;15.10;;;21.20;99.90;;;;;;5093429;27;20114;-83
2022/08/16 00:45:28;;;;;;;14.57;13.48;;;21.10;99.90;;;;;;5068998;27;20031;-83
2022/08/16 00:47:57;;;;;;;14.98;13.77;;;21.00;99.90;;;;;;5118598;27;20043;-84
2022/08/16 00:50:27;;;;;;;16.02;14.65;;;20.90;99.90;;;;;;5122246;27;20043;-83
2022/08/16 00:52:54;;;;;;;;;;;20.90;99.90;;;;;;5109110;27;20032;-83
2022/08/16 00:55:24;;;;;;;16.00;14.60;;;20.80;99.90;;;;;;5090610;27;20393;-83
2022/08/16 00:57:54;;;;;;;16.35;14.95;;;20.80;99.90;;;;;;5099301;27;20089;-83
2022/08/16 01:00:23;;;;;;;16.08;14.65;;;20.80;99.90;;;;;;5097744;27;20072;-84
2022/08/16 01:02:53;;;;;;;17.40;15.80;;;20.90;99.90;;;;;;5090427;27;20039;-83
2022/08/16 01:05:19;;;;;;;16.95;15.55;;;20.90;99.90;;;;;;5116435;27;20495;-83
2022/08/16 01:07:45;;;;;;;20.52;18.48;;;20.90;99.90;;;;;;5114628;27;20111;-83
2022/08/16 01:10:11;;;;;;;19.08;17.48;;;20.90;99.90;;;;;;5091671;27;20501;-84
2022/08/16 01:12:37;;;;;;;21.02;18.92;;;20.90;99.90;;;;;;5084861;28;20047;-83
2022/08/16 01:15:06;;;;;;;19.02;17.40;;;20.90;99.90;;;;;;5087623;27;20070;-83
2022/08/16 01:17:33;;;;;;;20.15;18.27;;;20.90;99.90;;;;;;5098102;27;20043;-83
2022/08/16 01:20:03;;;;;;;21.17;19.27;;;20.90;99.90;;;;;;5092886;27;20055;-83
2022/08/16 01:22:57;;;;;;;18.63;17.02;;;20.90;99.90;;;;;;5117274;27;20138;-83
2022/08/16 01:25:35;;;;;;;19.80;18.15;;;20.90;99.90;;;;;;5099530;27;20069;-84
2022/08/16 01:28:06;;;;;;;24.35;22.15;;;20.90;99.90;;;;;;5095629;27;20122;-83
2022/08/16 01:30:36;;;;;;;20.60;18.83;;;20.90;99.90;;;;;;5118458;27;20043;-83
2022/08/16 01:33:04;;;;;;;22.50;20.52;;;20.90;99.90;;;;;;5097165;27;20040;-83
2022/08/16 01:35:34;;;;;;;24.33;22.17;;;20.90;99.90;;;;;;5100641;27;20043;-84
2022/08/16 01:38:15;;;;;;;27.15;24.70;;;20.90;99.90;;;;;;5101055;27;20049;-83
2022/08/16 01:40:43;;;;;;;25.25;23.17;;;20.90;99.90;;;;;;5120404;27;20565;-79
2022/08/16 01:43:09;;;;;;;26.08;23.85;;;20.90;99.90;;;;;;5071850;27;20047;-79
2022/08/16 01:45:38;;;;;;;26.85;24.58;;;20.80;99.90;;;;;;5112243;27;20122;-80
2022/08/16 01:48:08;;;;;;;25.65;23.65;;;20.80;99.90;;;;;;5096091;28;20810;-80
2022/08/16 01:50:34;;;;;;;28.58;26.23;;;20.80;99.90;;;;;;5088913;27;20039;-83
2022/08/16 01:53:03;;;;;;;26.52;24.42;;;20.80;99.90;;;;;;5098068;27;20043;-83
2022/08/16 01:55:30;;;;;;;26.30;24.10;;;20.80;99.90;;;;;;5120822;27;20119;-83
2022/08/16 01:57:55;;;;;;;27.80;25.48;;;20.80;99.90;;;;;;5094512;28;20194;-84
2022/08/16 02:00:22;;;;;;;26.80;24.50;;;20.80;99.90;;;;;;5096203;27;20046;-83
2022/08/16 02:02:48;;;;;;;26.38;24.00;;;20.80;99.90;;;;;;5108611;27;20039;-83
2022/08/16 02:05:14;;;;;;;26.55;24.35;;;20.70;99.90;;;;;;5070666;28;20039;-80
2022/08/16 02:07:42;;;;;;;25.15;22.85;;;20.80;99.90;;;;;;5107018;27;20075;-79
2022/08/16 02:10:11;;;;;;;25.40;23.15;;;20.80;99.90;;;;;;5100480;28;20069;-80
2022/08/16 02:12:37;;;;;;;26.33;24.17;;;20.80;99.90;;;;;;5099894;28;20063;-79
2022/08/16 02:15:10;;;;;;;25.77;23.48;;;20.80;99.90;;;;;;5088776;27;20066;-80
2022/08/16 02:17:36;;;;;;;24.50;22.25;;;20.80;99.90;;;;;;5060450;27;20541;-79
2022/08/16 02:20:04;;;;;;;26.90;24.63;;;20.80;99.90;;;;;;5097827;28;20092;-79
2022/08/16 02:22:30;;;;;;;24.27;21.88;;;20.70;99.90;;;;;;5112121;28;20040;-83
2022/08/16 02:24:56;;;;;;;26.60;24.15;;;20.70;99.90;;;;;;5104332;28;20614;-84
2022/08/16 02:27:21;;;;;;;27.10;24.80;;;20.70;99.90;;;;;;5098550;28;20040;-83
2022/08/16 02:29:47;;;;;;;26.10;23.83;;;20.70;99.90;;;;;;5115367;27;20036;-80
2022/08/16 02:32:22;;;;;;;24.98;22.92;;;20.60;99.90;;;;;;5085382;27;20047;-80
2022/08/16 02:34:48;;;;;;;25.83;23.58;;;20.60;99.90;;;;;;5106046;27;20837;-80
2022/08/16 02:37:19;;;;;;;25.20;23.10;;;20.60;99.90;;;;;;5126386;27;20054;-80
2022/08/16 02:39:45;;;;;;;25.83;23.63;;;20.60;99.90;;;;;;5127279;27;20137;-84
2022/08/16 02:42:11;;;;;;;25.75;23.65;;;20.60;99.90;;;;;;5123182;27;20114;-83
2022/08/16 02:44:36;;;;;;;24.88;22.88;;;20.50;99.90;;;;;;5083556;27;20043;-84
2022/08/16 02:47:02;;;;;;;26.77;24.58;;;20.50;99.90;;;;;;5093445;27;20163;-84
2022/08/16 02:49:31;;;;;;;26.50;24.23;;;20.50;99.90;;;;;;5113973;27;20058;-84
2022/08/16 02:51:57;;;;;;;25.05;22.77;;;20.40;99.90;;;;;;5070262;27;20520;-84
2022/08/16 02:54:23;;;;;;;25.73;23.40;;;20.50;99.90;;;;;;5112308;27;20095;-84
2022/08/16 02:56:48;;;;;;;24.23;22.25;;;20.30;99.90;;;;;;5109199;27;20042;-84
2022/08/16 02:59:14;;;;;;;22.95;20.95;;;20.30;99.90;;;;;;5113751;27;20035;-83
2022/08/16 03:01:40;;;;;;;22.48;20.58;;;20.20;99.90;;;;;;5107908;27;20050;-80
2022/08/16 03:04:12;;;;;;;25.80;23.65;;;20.20;99.90;;;;;;5113108;27;20043;-80
2022/08/16 03:06:38;;;;;;;27.50;25.00;;;20.20;99.90;;;;;;5110889;27;20074;-79
2022/08/16 03:09:04;;;;;;;26.00;23.90;;;20.10;99.90;;;;;;5096150;27;20069;-83
2022/08/16 03:11:31;;;;;;;27.85;25.58;;;20.00;99.90;;;;;;5107517;27;20091;-83
2022/08/16 03:13:58;;;;;;;28.65;26.25;;;20.00;99.90;;;;;;5113819;27;20106;-83
2022/08/16 03:16:50;;;;;;;27.83;25.55;;;19.90;99.90;;;;;;5124098;27;20039;-83
2022/08/16 03:19:16;;;;;;;29.13;26.73;;;19.90;99.90;;;;;;5123213;27;20043;-83
2022/08/16 03:21:42;;;;;;;28.60;26.15;;;19.80;99.90;;;;;;5093138;27;20121;-83
2022/08/16 03:24:08;;;;;;;29.48;26.88;;;19.80;99.90;;;;;;5087882;27;20039;-82
2022/08/16 03:26:35;;;;;;;28.17;25.88;;;19.80;99.90;;;;;;5097509;27;20043;-82
2022/08/16 03:29:01;;;;;;;27.58;25.10;;;19.80;99.90;;;;;;5119599;27;20070;-82
2022/08/16 03:31:27;;;;;;;26.70;24.33;;;19.70;99.90;;;;;;5106426;27;20129;-82
2022/08/16 03:33:53;;;;;;;28.17;25.90;;;19.80;99.90;;;;;;5104786;27;20046;-83
2022/08/16 03:36:19;;;;;;;27.05;24.55;;;19.70;99.90;;;;;;5118317;27;20100;-82
2022/08/16 03:38:45;;;;;;;29.30;26.77;;;19.70;99.90;;;;;;5086052;27;20054;-83
2022/08/16 03:41:11;;;;;;;27.65;25.27;;;19.70;99.90;;;;;;5088355;27;20038;-83
2022/08/16 03:43:38;;;;;;;27.77;25.48;;;19.60;99.90;;;;;;5112475;27;20078;-83
2022/08/16 03:46:04;;;;;;;27.02;24.73;;;19.60;99.90;;;;;;5111823;27;20047;-83
2022/08/16 03:48:33;;;;;;;26.70;24.48;;;19.50;99.90;;;;;;5108112;27;20111;-83
2022/08/16 03:51:01;;;;;;;26.60;24.40;;;19.60;99.90;;;;;;5121459;27;20075;-82
2022/08/16 03:53:27;;;;;;;27.52;24.88;;;19.50;99.90;;;;;;5086739;27;20039;-83
2022/08/16 03:55:56;;;;;;;25.27;23.00;;;19.50;99.90;;;;;;5111558;27;20468;-83
2022/08/16 03:58:22;;;;;;;29.70;27.30;;;19.30;99.90;;;;;;5094633;27;20047;-83
2022/08/16 04:00:48;;;;;;;24.30;22.20;;;19.40;99.90;;;;;;5083596;27;20050;-82
2022/08/16 04:03:15;;;;;;;25.90;23.65;;;19.40;99.90;;;;;;5079374;27;20080;-83
2022/08/16 04:05:45;;;;;;;27.88;25.58;;;19.30;99.90;;;;;;5083660;27;20039;-82
2022/08/16 04:08:12;;;;;;;27.27;24.98;;;19.30;99.90;;;;;;5102035;27;20456;-82
2022/08/16 04:10:41;;;;;;;27.08;24.77;;;19.30;99.90;;;;;;5078272;27;20095;-82
2022/08/16 04:13:07;;;;;;;26.20;24.05;;;19.30;99.90;;;;;;5103816;27;20051;-82
2022/08/16 04:15:39;;;;;;;28.05;25.63;;;19.30;99.90;;;;;;5090663;27;20494;-83
2022/08/16 04:18:08;;;;;;;29.88;27.20;;;19.30;99.90;;;;;;5099241;27;20463;-83
2022/08/16 04:20:38;;;;;;;27.55;24.98;;;19.30;99.90;;;;;;5116488;27;20070;-82
2022/08/16 04:23:06;;;;;;;27.58;25.40;;;19.20;99.90;;;;;;5098092;27;20152;-83
2022/08/16 04:25:33;;;;;;;28.40;26.05;;;19.20;99.90;;;;;;5098256;27;20841;-82
2022/08/16 04:27:59;;;;;;;27.65;25.20;;;19.20;99.90;;;;;;5096992;27;20046;-82
2022/08/16 04:30:26;;;;;;;28.42;25.90;;;19.10;99.90;;;;;;5119415;27;20118;-82
2022/08/16 04:32:53;;;;;;;28.60;25.85;;;19.10;99.90;;;;;;5103527;27;20049;-83
2022/08/16 04:35:22;;;;;;;26.33;24.02;;;19.10;99.90;;;;;;5121655;27;20046;-83
2022/08/16 04:37:49;;;;;;;27.95;25.55;;;19.10;99.90;;;;;;5102637;27;20072;-82
2022/08/16 04:40:17;;;;;;;29.08;26.52;;;19.10;99.90;;;;;;5104274;27;20074;-82
2022/08/16 04:42:44;;;;;;;29.83;27.38;;;19.00;99.90;;;;;;5099334;27;20046;-83
2022/08/16 04:45:16;;;;;;;29.67;27.17;;;19.00;99.90;;;;;;5113323;27;20363;-82
2022/08/16 04:47:44;;;;;;;29.95;27.48;;;19.00;99.90;;;;;;5119485;27;20046;-82
2022/08/16 04:50:17;;;;;;;30.90;28.40;;;18.90;99.90;;;;;;5087290;27;20107;-83
2022/08/16 04:52:52;;;;;;;31.73;28.90;;;18.90;99.90;;;;;;5126201;27;20034;-82
2022/08/16 04:55:24;;;;;;;30.50;27.80;;;18.90;99.90;;;;;;5116775;27;20051;-83
2022/08/16 04:57:52;;;;;;;30.50;27.90;;;18.90;99.90;;;;;;5100872;27;20528;-83
2022/08/16 05:00:25;;;;;;;29.50;26.80;;;18.90;99.90;;;;;;5099222;27;20046;-83
2022/08/16 05:02:53;;;;;;;29.30;26.52;;;18.90;99.90;;;;;;5099306;27;20035;-82
2022/08/16 05:05:21;;;;;;;29.60;27.13;;;18.90;99.90;;;;;;5093469;27;20035;-82
2022/08/16 05:07:47;;;;;;;33.75;30.70;;;18.90;99.90;;;;;;5110845;27;20056;-82
2022/08/16 05:10:14;;;;;;;31.92;29.23;;;18.90;99.90;;;;;;5100404;27;20070;-82
2022/08/16 05:12:40;;;;;;;30.50;27.70;;;18.90;99.90;;;;;;5099568;27;20046;-83
2022/08/16 05:15:08;;;;;;;29.55;27.05;;;18.90;99.90;;;;;;5087944;27;20042;-83
2022/08/16 05:17:34;;;;;;;30.70;28.10;;;18.90;99.90;;;;;;5094799;27;20067;-84
2022/08/16 05:20:00;;;;;;;32.00;29.13;;;18.90;99.90;;;;;;5097167;27;20034;-82
2022/08/16 05:22:26;;;;;;;27.48;25.00;;;18.90;99.90;;;;;;5082396;27;20038;-83
2022/08/16 05:24:52;;;;;;;31.27;28.60;;;19.00;99.90;;;;;;5113783;27;20065;-82
2022/08/16 05:27:18;;;;;;;28.63;26.30;;;19.00;99.90;;;;;;5085570;27;20042;-84
2022/08/16 05:29:44;;;;;;;31.27;28.40;;;19.00;99.90;;;;;;5072386;27;20047;-82
2022/08/16 05:32:10;;;;;;;31.23;28.42;;;19.00;99.90;;;;;;5091591;27;20077;-82
2022/08/16 05:34:39;;;;;;;30.10;27.60;;;19.00;99.90;;;;;;5087452;27;20047;-82
2022/08/16 05:37:05;;;;;;;30.52;27.73;;;19.10;99.90;;;;;;5091796;27;20083;-84
2022/08/16 05:39:35;;;;;;;;;;;19.10;99.90;;;;;;5090029;27;20462;-82
2022/08/16 05:42:04;;;;;;;29.55;26.73;;;19.10;99.90;;;;;;5097767;27;19938;-83
2022/08/16 05:44:30;;;;;;;29.48;26.98;;;19.10;99.90;;;;;;5084163;27;20098;-82
2022/08/16 05:47:00;;;;;;;28.63;26.13;;;19.20;99.90;;;;;;5085542;27;20336;-80
2022/08/16 05:49:26;;;;;;;;;;;19.30;99.90;;;;;;5094933;27;20035;-82
2022/08/16 05:51:55;;;;;;;27.48;25.08;;;19.40;99.90;;;;;;5092016;27;20449;-83
2022/08/16 05:54:22;;;;;;;26.83;24.45;;;19.50;99.90;;;;;;5096481;27;20057;-82
2022/08/16 05:56:48;;;;;;;27.23;24.55;;;19.60;99.90;;;;;;5099625;27;20032;-83
2022/08/16 05:59:16;;;;;;;26.00;23.77;;;19.70;99.90;;;;;;5082052;27;20050;-83
2022/08/16 06:01:44;;;;;;;26.38;24.05;;;19.80;99.90;;;;;;5101853;27;20064;-83
2022/08/16 06:04:12;;;;;;;27.00;24.65;;;19.80;99.90;;;;;;5064179;27;20050;-83
2022/08/16 06:06:39;;;;;;;27.38;24.88;;;19.90;99.90;;;;;;5084932;27;20602;-83
2022/08/16 06:09:11;;;;;;;26.33;24.05;;;19.90;99.90;;;;;;5097389;27;20045;-82
2022/08/16 06:11:37;;;;;;;26.70;24.58;;;19.90;99.90;;;;;;5089765;27;20179;-83
2022/08/16 06:14:04;;;;;;;26.58;24.38;;;20.00;99.90;;;;;;5095253;27;20035;-83
2022/08/16 06:16:31;;;;;;;26.10;23.85;;;20.00;99.90;;;;;;5082610;27;20066;-83
2022/08/16 06:18:57;;;;;;;25.88;23.50;;;20.00;99.90;;;;;;5097973;27;20035;-83
2022/08/16 06:21:23;;;;;;;26.92;24.63;;;20.10;99.90;;;;;;5098706;27;20101;-80
2022/08/16 06:23:49;;;;;;;24.15;22.05;;;20.10;99.90;;;;;;5095818;27;20752;-80
2022/08/16 06:26:15;;;;;;;25.30;23.00;;;20.10;99.90;;;;;;5099240;27;20038;-80
2022/08/16 06:28:41;;;;;;;25.33;23.23;;;20.10;99.90;;;;;;5095251;27;20039;-83
2022/08/16 06:31:11;;;;;;;27.33;24.92;;;20.20;99.90;;;;;;5100634;27;20035;-84
2022/08/16 06:33:37;;;;;;;28.50;25.67;;;20.10;99.90;;;;;;5115658;27;20047;-79
2022/08/16 06:36:03;;;;;;;25.42;23.17;;;20.20;99.90;;;;;;5101694;27;20047;-80
2022/08/16 06:38:29;;;;;;;25.02;22.77;;;20.20;99.90;;;;;;5096951;27;20540;-80
2022/08/16 06:40:55;;;;;;;25.80;23.30;;;20.20;99.90;;;;;;5084357;27;20057;-79
2022/08/16 06:43:21;;;;;;;23.33;21.33;;;20.30;99.90;;;;;;5107051;27;20039;-80
2022/08/16 06:45:47;;;;;;;24.08;21.77;;;20.30;99.90;;;;;;5107271;27;20039;-79
2022/08/16 06:48:16;;;;;;;23.67;21.58;;;20.40;99.90;;;;;;5106509;27;20035;-80
2022/08/16 06:50:42;;;;;;;24.57;22.27;;;20.50;99.90;;;;;;5084302;27;20054;-79
2022/08/16 06:53:08;;;;;;;25.48;23.17;;;20.60;99.90;;;;;;5095742;27;20036;-80
2022/08/16 06:55:34;;;;;;;25.77;23.45;;;20.70;99.90;;;;;;5091898;27;20039;-79
2022/08/16 06:58:01;;;;;;;24.60;22.30;;;20.80;99.90;;;;;;5111181;27;20031;-80
2022/08/16 07:00:28;;;;;;;26.45;24.27;;;20.80;99.90;;;;;;5096974;27;20611;-80
2022/08/16 07:02:55;;;;;;;25.85;23.65;;;20.90;99.90;;;;;;5083825;27;20545;-80
2022/08/16 07:05:21;;;;;;;27.17;24.70;;;21.00;99.90;;;;;;5093899;27;20035;-80
2022/08/16 07:07:50;;;;;;;24.90;22.63;;;21.00;99.90;;;;;;5109144;27;20039;-81
2022/08/16 07:10:18;;;;;;;24.42;22.25;;;21.10;99.90;;;;;;5100365;27;20046;-81
2022/08/16 07:12:44;;;;;;;24.10;21.90;;;21.20;99.90;;;;;;5111226;27;20096;-80
2022/08/16 07:15:10;;;;;;;25.25;23.02;;;21.30;99.90;;;;;;5090724;27;20042;-80
2022/08/16 07:17:43;;;;;;;24.90;22.58;;;21.50;99.90;;;;;;5072187;27;20038;-80
2022/08/16 07:20:11;;;;;;;23.23;21.30;;;21.50;99.90;;;;;;5099898;27;20730;-80
2022/08/16 07:22:41;;;;;;;23.83;21.92;;;21.60;99.90;;;;;;5099605;27;20051;-82
2022/08/16 07:25:10;;;;;;;25.92;23.55;;;21.70;99.90;;;;;;5112622;27;20039;-79
2022/08/16 07:27:37;;;;;;;25.25;22.92;;;21.90;99.90;;;;;;5097678;27;20091;-80
2022/08/16 07:30:15;;;;;;;25.63;23.50;;;21.90;99.90;;;;;;5113053;27;20093;-81
2022/08/16 07:32:41;;;;;;;25.80;23.38;;;22.00;99.90;;;;;;5111207;27;20051;-81
2022/08/16 07:35:07;;;;;;;27.33;24.55;;;22.20;99.90;;;;;;5099030;27;20099;-79
2022/08/16 07:37:33;;;;;;;26.48;24.17;;;22.30;99.90;;;;;;5100876;27;20251;-80
2022/08/16 07:40:00;;;;;;;24.77;22.75;;;22.40;99.90;;;;;;5104967;27;20038;-79
2022/08/16 07:42:26;;;;;;;23.55;21.45;;;22.50;99.90;;;;;;5098555;27;20074;-84
2022/08/16 07:44:51;;;;;;;24.30;22.08;;;22.60;99.90;;;;;;5103325;27;20046;-84
2022/08/16 07:47:17;;;;;;;24.98;22.88;;;22.70;99.90;;;;;;5092005;27;20042;-84
2022/08/16 07:49:43;;;;;;;25.95;23.65;;;22.90;99.90;;;;;;5088905;27;20306;-84
2022/08/16 07:52:09;;;;;;;24.23;21.92;;;23.00;99.90;;;;;;5088686;27;20129;-84
2022/08/16 07:54:37;;;;;;;24.23;22.15;;;23.00;99.90;;;;;;5090488;27;20404;-82
2022/08/16 07:57:04;;;;;;;23.15;21.15;;;23.20;99.90;;;;;;5102293;27;20075;-84
2022/08/16 07:59:30;;;;;;;24.08;21.88;;;23.30;99.90;;;;;;5099186;27;20043;-85
2022/08/16 08:01:56;;;;;;;24.83;22.50;;;23.40;99.90;;;;;;5103566;27;20113;-84
2022/08/16 08:04:22;;;;;;;23.25;21.15;;;23.50;99.90;;;;;;5100108;27;21828;-84
2022/08/16 08:06:48;;;;;;;24.10;22.10;;;23.60;99.90;;;;;;5112463;27;20187;-85
2022/08/16 08:09:14;;;;;;;23.30;21.17;;;23.70;99.90;;;;;;5112413;27;20686;-84
2022/08/16 08:11:40;;;;;;;24.58;22.40;;;23.80;99.90;;;;;;5105753;27;20596;-84
2022/08/16 08:14:06;;;;;;;25.75;23.35;;;23.90;99.90;;;;;;5097985;27;20078;-84
2022/08/16 08:16:32;;;;;;;23.17;20.98;;;24.00;99.90;;;;;;5105849;27;20066;-82
2022/08/16 08:18:59;;;;;;;25.17;22.77;;;24.10;99.90;;;;;;5084654;27;20131;-82
2022/08/16 08:21:25;;;;;;;22.40;20.27;;;24.20;99.90;;;;;;5090118;27;20031;-83
2022/08/16 08:23:52;;;;;;;24.13;22.13;;;24.30;99.90;;;;;;5086959;27;20042;-83
2022/08/16 08:26:18;;;;;;;23.92;21.83;;;24.40;99.90;;;;;;5097011;27;20094;-84
2022/08/16 08:28:45;;;;;;;21.10;19.02;;;24.50;99.90;;;;;;5116216;27;20042;-84
2022/08/16 08:31:12;;;;;;;19.30;17.27;;;24.60;99.90;;;;;;5085307;27;20046;-83
2022/08/16 08:33:37;;;;;;;19.92;18.00;;;24.70;99.90;;;;;;5098982;27;20063;-83
2022/08/16 08:36:10;;;;;;;20.83;18.92;;;24.90;99.90;;;;;;5089798;27;20495;-83
2022/08/16 08:38:38;;;;;;;20.10;18.10;;;24.90;99.90;;;;;;5088650;27;20047;-82
2022/08/16 08:41:06;;;;;;;18.52;16.85;;;25.00;99.90;;;;;;5070336;27;20494;-83
2022/08/16 08:43:34;;;;;;;17.48;15.80;;;25.20;99.90;;;;;;5091363;27;20043;-80
2022/08/16 08:46:00;;;;;;;21.00;19.10;;;25.30;99.90;;;;;;5100749;27;20047;-79
2022/08/16 08:48:26;;;;;;;18.05;16.45;;;25.40;99.90;;;;;;5108430;27;20073;-79
2022/08/16 08:50:52;;;;;;;17.17;15.55;;;25.50;99.90;;;;;;5091115;27;20074;-79
2022/08/16 08:53:18;;;;;;;18.45;14.80;;;25.50;99.90;;;;;;5083884;27;20418;-79
2022/08/16 08:55:48;;;;;;;14.93;13.32;;;25.60;99.90;;;;;;5094678;27;20047;-83
2022/08/16 08:58:14;;;;;;;18.90;13.60;;;25.80;99.90;;;;;;5092481;27;20047;-84
2022/08/16 09:00:40;;;;;;;14.32;11.75;;;25.80;99.90;;;;;;5120011;27;20145;-83
2022/08/16 09:03:08;;;;;;;15.43;14.02;;;26.00;99.90;;;;;;5093933;27;20113;-84
2022/08/16 09:05:35;;;;;;;17.03;14.33;;;26.00;99.90;;;;;;5092980;27;20036;-81
2022/08/16 09:08:00;;;;;;;16.23;14.63;;;26.20;99.80;;;;;;5091662;27;20133;-82
2022/08/16 09:10:27;;;;;;;16.00;14.38;;;26.20;98.70;;;;;;5069551;27;20568;-81
2022/08/16 09:12:53;;;;;;;14.95;13.52;;;26.20;96.90;;;;;;5088309;27;20106;-81
2022/08/16 09:15:20;;;;;;;17.23;15.63;;;26.20;96.60;;;;;;5107722;27;20031;-79
2022/08/16 09:17:46;;;;;;;14.32;13.02;;;26.20;95.70;;;;;;5087004;27;20068;-79
2022/08/16 09:20:13;;;;;;;14.52;13.13;;;26.30;96.30;;;;;;5089447;27;20039;-80
2022/08/16 09:22:40;;;;;;;13.95;12.05;;;26.30;95.90;;;;;;5094762;27;20133;-80
2022/08/16 09:25:10;;;;;;;14.10;10.93;;;26.40;95.60;;;;;;5092193;27;20039;-79
2022/08/16 09:27:36;;;;;;;16.25;12.60;;;26.50;95.60;;;;;;5094569;27;20034;-79
2022/08/16 09:30:03;;;;;;;18.90;14.13;;;26.70;95.20;;;;;;5093515;27;20047;-79
2022/08/16 09:32:29;;;;;;;13.38;12.00;;;26.90;94.10;;;;;;5101310;27;21524;-79
2022/08/16 09:34:55;;;;;;;14.48;12.90;;;27.00;94.10;;;;;;5096613;27;20049;-84
2022/08/16 09:37:21;;;;;;;13.30;11.85;;;27.10;93.90;;;;;;5097922;27;20224;-80
2022/08/16 09:39:47;;;;;;;15.18;12.77;;;27.30;93.70;;;;;;5092758;27;20043;-79
2022/08/16 09:42:14;;;;;;;12.40;9.60;;;27.40;93.10;;;;;;5105589;27;20053;-80
2022/08/16 09:44:41;;;;;;;13.50;10.95;;;27.50;91.40;;;;;;5102151;27;20050;-80
2022/08/16 09:47:08;;;;;;;12.60;11.27;;;27.50;90.10;;;;;;5093407;27;20107;-79
2022/08/16 09:49:34;;;;;;;11.63;10.32;;;27.50;90.50;;;;;;5090075;27;20054;-80
2022/08/16 09:52:00;;;;;;;12.85;11.45;;;27.60;90.10;;;;;;5120257;27;20039;-84
2022/08/16 09:54:27;;;;;;;11.48;10.00;;;27.70;89.80;;;;;;5119245;27;20098;-80
2022/08/16 09:56:53;;;;;;;13.25;11.10;;;27.70;88.60;;;;;;5098385;27;20080;-78
2022/08/16 09:59:19;;;;;;;11.85;8.90;;;27.80;89.00;;;;;;5112694;27;20440;-79
2022/08/16 10:01:47;;;;;;;10.27;9.27;;;27.90;88.20;;;;;;5095515;27;20042;-81
2022/08/16 10:04:14;;;;;;;14.10;12.70;;;28.00;86.20;;;;;;5096129;27;20042;-79
2022/08/16 10:06:40;;;;;;;13.55;12.25;;;28.10;87.70;;;;;;5097813;27;20061;-78
2022/08/16 10:09:08;;;;;;;14.68;12.25;;;28.20;87.80;;;;;;5082023;27;20081;-79
2022/08/16 10:14:21;;;;;;;10.02;8.98;;;28.20;86.70;;;;;;5101294;27;21108;-79
2022/08/16 10:16:47;;;;;;;11.95;10.73;;;28.20;85.40;;;;;;5094547;27;20039;-79
2022/08/16 10:19:14;;;;;;;11.90;8.70;;;28.30;83.80;;;;;;5116972;27;20447;-79
2022/08/16 10:21:41;;;;;;;10.98;7.65;;;28.30;82.90;;;;;;5104915;27;20090;-79
2022/08/16 10:24:07;;;;;;;10.20;7.38;;;28.30;81.20;;;;;;5082856;27;20500;-79
2022/08/16 10:26:35;;;;;;;9.35;7.10;;;28.40;78.00;;;;;;5114227;27;20077;-80
2022/08/16 10:29:02;;;;;;;11.45;8.27;;;28.40;75.30;;;;;;5078525;27;20050;-79
2022/08/16 10:31:28;;;;;;;8.80;7.97;;;28.50;74.60;;;;;;5098788;27;20047;-80
2022/08/16 10:33:54;;;;;;;7.75;6.78;;;28.50;74.60;;;;;;5070042;28;20058;-78
2022/08/16 10:36:20;;;;;;;8.32;6.28;;;28.60;73.20;;;;;;5112492;28;20544;-78
2022/08/16 10:38:46;;;;;;;7.47;5.13;;;28.60;73.50;;;;;;5094898;28;20044;-79
2022/08/16 10:41:15;;;;;;;10.25;6.18;;;28.80;70.80;;;;;;5108577;28;20044;-80
2022/08/16 10:43:42;;;;;;;7.70;6.70;;;28.80;69.40;;;;;;5113087;28;20493;-79
2022/08/16 10:46:11;;;;;;;9.23;5.55;;;28.80;70.40;;;;;;5096818;28;20040;-78
2022/08/16 10:48:39;;;;;;;8.23;5.25;;;28.90;70.60;;;;;;5091065;28;20050;-79
2022/08/16 10:51:06;;;;;;;6.50;5.57;;;29.00;69.60;;;;;;5093877;28;20055;-79
2022/08/16 10:53:32;;;;;;;8.80;5.45;;;29.10;70.50;;;;;;5120472;27;20080;-79
2022/08/16 10:55:58;;;;;;;7.82;5.10;;;29.20;68.70;;;;;;5101527;27;20042;-78
2022/08/16 10:58:25;;;;;;;8.10;6.45;;;29.30;67.90;;;;;;5113110;27;20126;-81
2022/08/16 11:00:51;;;;;;;8.27;7.03;;;29.40;67.80;;;;;;5101914;27;20051;-78
2022/08/16 11:03:17;;;;;;;8.38;5.70;;;29.30;66.90;;;;;;5095372;28;20505;-78
2022/08/16 11:05:43;;;;;;;5.88;4.57;;;29.40;67.40;;;;;;5095208;27;20727;-79
2022/08/16 11:08:10;;;;;;;4.68;4.00;;;29.50;66.70;;;;;;5090830;28;20043;-77
2022/08/16 11:10:40;;;;;;;6.60;4.00;;;29.60;65.50;;;;;;5099213;27;20050;-79
2022/08/16 11:13:07;;;;;;;7.63;3.90;;;29.60;62.30;;;;;;5090848;27;20553;-80
2022/08/16 11:15:34;;;;;;;5.28;3.72;;;29.60;61.70;;;;;;5095831;27;20031;-78
2022/08/16 11:18:00;;;;;;;7.13;4.40;;;29.60;61.70;;;;;;5093789;27;20049;-78
2022/08/16 11:20:27;;;;;;;6.93;4.47;;;29.70;61.00;;;;;;5111125;27;20040;-79
2022/08/16 11:22:53;;;;;;;5.28;3.97;;;29.70;62.70;;;;;;5096914;27;20068;-78
2022/08/16 11:25:23;;;;;;;5.00;3.85;;;29.80;62.30;;;;;;5097566;27;20039;-79
2022/08/16 11:27:49;;;;;;;10.00;4.10;;;29.80;64.30;;;;;;5092484;27;20050;-78
2022/08/16 11:30:16;;;;;;;7.72;4.20;;;30.00;62.40;;;;;;5112613;27;20031;-79
2022/08/16 11:32:43;;;;;;;9.93;4.25;;;30.10;59.90;;;;;;5117308;27;20059;-79
2022/08/16 11:35:14;;;;;;;7.18;4.28;;;30.10;59.20;;;;;;5114012;27;20074;-78
2022/08/16 11:37:50;;;;;;;7.45;4.28;;;30.10;61.10;;;;;;5116566;27;20116;-79
2022/08/16 11:40:16;;;;;;;5.60;4.35;;;30.20;60.70;;;;;;5117045;27;20043;-80
2022/08/16 11:42:41;;;;;;;6.13;3.95;;;30.20;60.10;;;;;;5091754;27;20505;-78
2022/08/16 11:45:08;;;;;;;6.45;4.15;;;30.30;58.50;;;;;;5074217;27;20051;-79
2022/08/16 11:47:34;;;;;;;6.28;4.20;;;30.20;56.80;;;;;;5112553;27;20043;-78
2022/08/16 11:50:00;;;;;;;6.10;4.47;;;30.20;58.20;;;;;;5094500;27;20047;-79
2022/08/16 11:52:26;;;;;;;6.00;5.32;;;30.30;59.10;;;;;;5078673;27;20047;-80
2022/08/16 11:54:51;;;;;;;5.60;4.78;;;30.40;60.70;;;;;;5085561;27;20494;-78
2022/08/16 11:57:17;;;;;;;7.50;5.32;;;30.50;60.70;;;;;;5087240;27;20035;-79
2022/08/16 11:59:43;;;;;;;9.95;5.80;;;30.60;60.00;;;;;;5114753;27;20260;-80
2022/08/16 12:02:09;;;;;;;7.68;4.82;;;30.70;59.50;;;;;;5094851;27;20048;-78
2022/08/16 12:04:35;;;;;;;7.05;4.70;;;30.70;60.20;;;;;;5067230;27;20050;-79
2022/08/16 12:07:04;;;;;;;7.57;5.10;;;30.70;61.30;;;;;;5089384;27;20817;-79
2022/08/16 12:09:30;;;;;;;5.65;4.20;;;30.80;59.70;;;;;;5115117;27;20790;-79
2022/08/16 12:11:57;;;;;;;7.28;4.88;;;30.80;61.60;;;;;;5110609;27;20825;-78
2022/08/16 12:14:23;;;;;;;7.43;4.90;;;30.90;60.60;;;;;;5096213;27;20146;-80
2022/08/16 12:16:54;;;;;;;10.68;4.57;;;31.00;59.00;;;;;;5108104;27;20066;-78
2022/08/16 12:19:21;;;;;;;8.93;5.20;;;31.10;59.20;;;;;;5113193;27;20055;-79
2022/08/16 12:21:47;;;;;;;8.68;5.05;;;31.20;57.90;;;;;;5095088;27;20075;-78
2022/08/16 12:24:13;;;;;;;5.47;4.53;;;31.10;58.50;;;;;;5079841;27;20039;-83
2022/08/16 12:26:40;;;;;;;9.90;5.40;;;31.20;57.70;;;;;;5098203;27;20069;-81
2022/08/16 12:29:08;;;;;;;6.57;4.50;;;31.20;58.70;;;;;;5096618;27;20038;-79
2022/08/16 12:31:37;;;;;;;8.55;5.13;;;31.20;57.10;;;;;;5116510;27;20100;-79
2022/08/16 12:34:06;;;;;;;6.38;4.38;;;31.10;56.00;;;;;;5092336;27;20055;-81